Datos. Málaga, Centro Meteorológico

Actualizado: viernes, 31 octubre 2014 a las 05:32 hora oficial
Ind. climatológico: 6156X -  Altitud (m): 54
Latitud36° 43' 4'' N - Longitud4° 28' 54'' O -  PosiciónVer localización
MunicipioMálaga (Málaga) - Ver predicción
Registros - de
Fecha y hora oficial

 

Temp. (°C)

 

V. vien. (km/h)

 

Dir. viento

 

Racha (km/h)

 

Dir. racha

 

Prec. (mm)

 

Presión (hPa)

 

Tend. (hPa)

 

Humedad (%)

 

31/10/2014 05:00 17.0 5 9-NoroesteNoroeste 13 2-NorteNorte 0.0 1016.0 -0.7 79
31/10/2014 04:00 17.6 5 2-NorteNorte 10 2-NorteNorte 0.0 1015.9 -0.8 76
31/10/2014 03:00 17.7 6 2-NorteNorte 12 2-NorteNorte 0.0 1016.5 -0.2 78
31/10/2014 02:00 16.3 3 9-NoroesteNoroeste 8 8-OesteOeste 0.0 1016.7 0.1 81
31/10/2014 01:00 17.6 0 1-CalmaCalma 11 7-SudoesteSudoeste 0.0 1016.7 0.4 78
31/10/2014 00:00 18.0 0 1-CalmaCalma 9 2-NorteNorte 0.0 1016.7 1.2 74
30/10/2014 23:00 18.5 3 9-NoroesteNoroeste 8 2-NorteNorte 0.0 1016.6 1.4 72
30/10/2014 22:00 19.5 4 9-NoroesteNoroeste 8 2-NorteNorte 0.0 1016.3 1.5 69
30/10/2014 21:00 19.9 4 2-NorteNorte 6 2-NorteNorte 0.0 1015.5 1.2 69
30/10/2014 20:00 20.5 2 8-OesteOeste 6 5-SudesteSudeste 0.0 1015.2 1.2 65
30/10/2014 19:00 21.1 3 5-SudesteSudeste 12 5-SudesteSudeste 0.0 1014.8 1.0 62
30/10/2014 18:00 22.0 8 5-SudesteSudeste 14 5-SudesteSudeste 0.0 1014.3 0.4 57
30/10/2014 17:00 23.4 9 5-SudesteSudeste 23 5-SudesteSudeste 0.0 1014.0 -0.4 52
30/10/2014 16:00 24.2 11 5-SudesteSudeste 24 5-SudesteSudeste 0.0 1013.8 -1.1 49
30/10/2014 15:00 24.8 11 5-SudesteSudeste 22 5-SudesteSudeste 0.0 1013.9 -1.5 47
30/10/2014 14:00 24.9 11 5-SudesteSudeste 20 5-SudesteSudeste 0.0 1014.4 -1.0 50
30/10/2014 13:00 25.4 12 5-SudesteSudeste 22 6-SurSur 0.0 1014.9 -0.4 46
30/10/2014 12:00 25.6 9 5-SudesteSudeste 23 6-SurSur 0.0 1015.4 0.1 47
30/10/2014 11:00 23.6 10 7-SudoesteSudoeste 14 7-SudoesteSudoeste 0.0 1015.4 0.6 63
30/10/2014 10:00 21.7 8 8-OesteOeste 13 9-NoroesteNoroeste 0.0 1015.3 1.1 73
30/10/2014 09:00 18.4 7 8-OesteOeste 14 9-NoroesteNoroeste 0.0 1015.3 1.2 82
30/10/2014 08:00 16.2 7 8-OesteOeste 12 8-OesteOeste 0.0 1014.8 0.7 93
30/10/2014 07:00 17.3 4 9-NoroesteNoroeste 8 2-NorteNorte 0.0 1014.2 0.3 91
30/10/2014 06:00 17.9 5 2-NorteNorte 12 9-NoroesteNoroeste 0.0 1014.1 0.2 90
First Page First Page First Page Last Page
Lineas por página
Página   de  
Compartir:  
En esta página podrá acceder, en forma gráfica y en tabla, a las observaciones horarias de las últimas 24 horas, así como a los valores extremos y acumulados desde las 00 horas del día hasta la hora de actualización indicada, obtenidos en la red de estaciones de AEMET. También podrá acceder a los resúmenes diarios de estas estaciones en los últimos 7 días.

En el mapa aparecen estaciones con valor númerico y otras representadas por un punto. En las primeras, al pasar el ratón, aparece un desplegable con la información completa de la estación. Las estaciones representadas por un punto son estaciones de la red climatológica, con transmisión de datos superior a la hora, por lo que al seleccionarlas pueden no aparecer los últimos datos.

Los datos presentados han sido únicamente sometidos a controles automáticos de calidad en tiempo real, por lo que no puede garantizarse la ausencia de errores.
© AEMET. Autorizado el uso de la información y su reproducción citando a AEMET como autora de la misma.